sensor_id;sensor_type;location;lat;lon;timestamp;P1;durP1;ratioP1;P2;durP2;ratioP2
19897;SDS011;10111;50.814;4.572;2022-10-20T00:01:51;11.73;;;7.57;;
19897;SDS011;10111;50.814;4.572;2022-10-20T00:04:17;13.40;;;8.20;;
19897;SDS011;10111;50.814;4.572;2022-10-20T00:06:42;12.00;;;9.00;;
19897;SDS011;10111;50.814;4.572;2022-10-20T00:09:08;13.97;;;9.03;;
19897;SDS011;10111;50.814;4.572;2022-10-20T00:11:34;12.73;;;7.63;;
19897;SDS011;10111;50.814;4.572;2022-10-20T00:14:00;15.10;;;9.40;;
19897;SDS011;10111;50.814;4.572;2022-10-20T00:16:27;12.70;;;8.40;;
19897;SDS011;10111;50.814;4.572;2022-10-20T00:18:55;12.00;;;7.70;;
19897;SDS011;10111;50.814;4.572;2022-10-20T00:21:23;13.80;;;9.07;;
19897;SDS011;10111;50.814;4.572;2022-10-20T00:23:50;15.20;;;7.80;;
19897;SDS011;10111;50.814;4.572;2022-10-20T00:26:17;12.80;;;8.23;;
19897;SDS011;10111;50.814;4.572;2022-10-20T00:28:45;13.07;;;8.17;;
19897;SDS011;10111;50.814;4.572;2022-10-20T00:31:11;13.00;;;8.53;;
19897;SDS011;10111;50.814;4.572;2022-10-20T00:33:37;17.73;;;9.53;;
19897;SDS011;10111;50.814;4.572;2022-10-20T00:36:04;12.40;;;8.73;;
19897;SDS011;10111;50.814;4.572;2022-10-20T00:38:31;11.90;;;9.10;;
19897;SDS011;10111;50.814;4.572;2022-10-20T00:40:57;11.10;;;7.83;;
19897;SDS011;10111;50.814;4.572;2022-10-20T00:43:43;12.10;;;7.60;;
19897;SDS011;10111;50.814;4.572;2022-10-20T00:46:11;10.23;;;7.83;;
19897;SDS011;10111;50.814;4.572;2022-10-20T00:48:39;10.80;;;7.80;;
19897;SDS011;10111;50.814;4.572;2022-10-20T00:51:07;14.27;;;8.23;;
19897;SDS011;10111;50.814;4.572;2022-10-20T00:53:32;11.53;;;7.60;;
19897;SDS011;10111;50.814;4.572;2022-10-20T00:55:59;11.50;;;7.83;;
19897;SDS011;10111;50.814;4.572;2022-10-20T00:58:25;10.70;;;7.80;;
19897;SDS011;10111;50.814;4.572;2022-10-20T01:00:54;11.03;;;8.20;;
19897;SDS011;10111;50.814;4.572;2022-10-20T01:03:23;11.37;;;7.77;;
19897;SDS011;10111;50.814;4.572;2022-10-20T01:05:51;14.77;;;8.83;;
19897;SDS011;10111;50.814;4.572;2022-10-20T01:08:17;14.27;;;9.20;;
19897;SDS011;10111;50.814;4.572;2022-10-20T01:11:05;15.10;;;8.93;;
19897;SDS011;10111;50.814;4.572;2022-10-20T01:14:05;16.23;;;9.37;;
19897;SDS011;10111;50.814;4.572;2022-10-20T01:27:50;12.33;;;7.57;;
19897;SDS011;10111;50.814;4.572;2022-10-20T01:30:23;13.47;;;8.87;;
19897;SDS011;10111;50.814;4.572;2022-10-20T01:41:17;15.57;;;8.80;;
19897;SDS011;10111;50.814;4.572;2022-10-20T01:43:49;13.93;;;8.13;;
19897;SDS011;10111;50.814;4.572;2022-10-20T01:46:16;13.80;;;9.40;;
19897;SDS011;10111;50.814;4.572;2022-10-20T01:48:45;13.87;;;9.33;;
19897;SDS011;10111;50.814;4.572;2022-10-20T01:51:12;14.50;;;9.27;;
19897;SDS011;10111;50.814;4.572;2022-10-20T01:53:37;11.87;;;8.40;;
19897;SDS011;10111;50.814;4.572;2022-10-20T01:56:03;12.57;;;9.00;;
19897;SDS011;10111;50.814;4.572;2022-10-20T02:04:20;14.00;;;8.73;;
19897;SDS011;10111;50.814;4.572;2022-10-20T02:07:11;16.00;;;9.83;;
19897;SDS011;10111;50.814;4.572;2022-10-20T02:09:47;14.83;;;10.00;;
19897;SDS011;10111;50.814;4.572;2022-10-20T02:12:18;14.83;;;9.33;;
19897;SDS011;10111;50.814;4.572;2022-10-20T02:14:51;16.77;;;9.60;;
19897;SDS011;10111;50.814;4.572;2022-10-20T02:17:18;20.83;;;11.50;;
19897;SDS011;10111;50.814;4.572;2022-10-20T02:19:45;15.03;;;8.70;;
19897;SDS011;10111;50.814;4.572;2022-10-20T02:22:15;14.20;;;9.50;;
19897;SDS011;10111;50.814;4.572;2022-10-20T02:24:43;16.97;;;9.77;;
19897;SDS011;10111;50.814;4.572;2022-10-20T02:27:11;14.87;;;10.03;;
19897;SDS011;10111;50.814;4.572;2022-10-20T02:29:44;16.73;;;9.53;;
19897;SDS011;10111;50.814;4.572;2022-10-20T02:32:17;14.23;;;8.87;;
19897;SDS011;10111;50.814;4.572;2022-10-20T02:34:43;15.40;;;9.20;;
19897;SDS011;10111;50.814;4.572;2022-10-20T02:37:09;18.00;;;10.57;;
19897;SDS011;10111;50.814;4.572;2022-10-20T02:39:35;14.07;;;9.80;;
19897;SDS011;10111;50.814;4.572;2022-10-20T02:42:00;14.37;;;9.73;;
19897;SDS011;10111;50.814;4.572;2022-10-20T02:44:26;17.70;;;9.30;;
19897;SDS011;10111;50.814;4.572;2022-10-20T02:46:51;13.53;;;9.70;;
19897;SDS011;10111;50.814;4.572;2022-10-20T02:49:17;15.30;;;9.07;;
19897;SDS011;10111;50.814;4.572;2022-10-20T02:51:44;13.70;;;9.37;;
19897;SDS011;10111;50.814;4.572;2022-10-20T02:54:09;16.17;;;9.10;;
19897;SDS011;10111;50.814;4.572;2022-10-20T02:56:35;12.40;;;9.33;;
19897;SDS011;10111;50.814;4.572;2022-10-20T02:59:01;12.00;;;9.10;;
19897;SDS011;10111;50.814;4.572;2022-10-20T03:01:26;14.97;;;9.93;;
19897;SDS011;10111;50.814;4.572;2022-10-20T03:03:52;14.47;;;8.93;;
19897;SDS011;10111;50.814;4.572;2022-10-20T03:06:22;14.50;;;8.03;;
19897;SDS011;10111;50.814;4.572;2022-10-20T03:08:48;13.60;;;8.90;;
19897;SDS011;10111;50.814;4.572;2022-10-20T03:11:13;14.27;;;9.47;;
19897;SDS011;10111;50.814;4.572;2022-10-20T03:13:39;15.17;;;9.23;;
19897;SDS011;10111;50.814;4.572;2022-10-20T03:16:05;13.07;;;9.10;;
19897;SDS011;10111;50.814;4.572;2022-10-20T03:18:30;14.30;;;9.00;;
19897;SDS011;10111;50.814;4.572;2022-10-20T03:20:56;14.00;;;10.13;;
19897;SDS011;10111;50.814;4.572;2022-10-20T03:23:22;14.17;;;9.30;;
19897;SDS011;10111;50.814;4.572;2022-10-20T03:25:47;13.10;;;8.27;;
19897;SDS011;10111;50.814;4.572;2022-10-20T03:28:13;12.50;;;8.97;;
19897;SDS011;10111;50.814;4.572;2022-10-20T03:30:39;14.10;;;8.53;;
19897;SDS011;10111;50.814;4.572;2022-10-20T03:33:04;14.87;;;10.13;;
19897;SDS011;10111;50.814;4.572;2022-10-20T03:35:30;12.27;;;8.27;;
19897;SDS011;10111;50.814;4.572;2022-10-20T03:37:56;14.10;;;8.93;;
19897;SDS011;10111;50.814;4.572;2022-10-20T03:40:21;13.63;;;8.77;;
19897;SDS011;10111;50.814;4.572;2022-10-20T03:42:47;14.77;;;9.20;;
19897;SDS011;10111;50.814;4.572;2022-10-20T03:45:13;14.77;;;9.27;;
19897;SDS011;10111;50.814;4.572;2022-10-20T03:47:38;15.17;;;7.50;;
19897;SDS011;10111;50.814;4.572;2022-10-20T03:50:04;12.77;;;8.07;;
19897;SDS011;10111;50.814;4.572;2022-10-20T03:52:30;12.37;;;8.50;;
19897;SDS011;10111;50.814;4.572;2022-10-20T03:54:56;11.80;;;7.90;;
19897;SDS011;10111;50.814;4.572;2022-10-20T03:57:21;14.27;;;8.07;;
19897;SDS011;10111;50.814;4.572;2022-10-20T03:59:47;8.43;;;6.60;;
19897;SDS011;10111;50.814;4.572;2022-10-20T04:02:19;13.10;;;8.33;;
19897;SDS011;10111;50.814;4.572;2022-10-20T04:04:53;13.10;;;7.83;;
19897;SDS011;10111;50.814;4.572;2022-10-20T04:07:19;12.63;;;8.17;;
19897;SDS011;10111;50.814;4.572;2022-10-20T04:09:45;11.57;;;8.40;;
19897;SDS011;10111;50.814;4.572;2022-10-20T04:12:10;10.20;;;7.40;;
19897;SDS011;10111;50.814;4.572;2022-10-20T04:14:36;8.83;;;6.93;;
19897;SDS011;10111;50.814;4.572;2022-10-20T04:17:01;13.50;;;8.63;;
19897;SDS011;10111;50.814;4.572;2022-10-20T04:19:27;9.97;;;6.83;;
19897;SDS011;10111;50.814;4.572;2022-10-20T04:21:52;10.40;;;6.87;;
19897;SDS011;10111;50.814;4.572;2022-10-20T04:24:18;11.70;;;7.27;;
19897;SDS011;10111;50.814;4.572;2022-10-20T04:26:43;11.00;;;6.87;;
19897;SDS011;10111;50.814;4.572;2022-10-20T04:29:09;10.57;;;8.07;;
19897;SDS011;10111;50.814;4.572;2022-10-20T04:31:35;12.97;;;7.77;;
19897;SDS011;10111;50.814;4.572;2022-10-20T04:34:00;11.43;;;6.73;;
19897;SDS011;10111;50.814;4.572;2022-10-20T04:36:26;11.23;;;8.07;;
19897;SDS011;10111;50.814;4.572;2022-10-20T04:38:51;12.27;;;8.60;;
19897;SDS011;10111;50.814;4.572;2022-10-20T04:41:17;11.20;;;7.93;;
19897;SDS011;10111;50.814;4.572;2022-10-20T04:43:43;11.60;;;6.97;;
19897;SDS011;10111;50.814;4.572;2022-10-20T04:46:13;10.90;;;7.43;;
19897;SDS011;10111;50.814;4.572;2022-10-20T04:48:40;12.27;;;7.97;;
19897;SDS011;10111;50.814;4.572;2022-10-20T04:51:08;11.53;;;8.00;;
19897;SDS011;10111;50.814;4.572;2022-10-20T04:53:35;11.73;;;7.17;;
19897;SDS011;10111;50.814;4.572;2022-10-20T04:56:02;15.07;;;7.93;;
19897;SDS011;10111;50.814;4.572;2022-10-20T04:58:29;14.97;;;8.17;;
19897;SDS011;10111;50.814;4.572;2022-10-20T05:00:59;11.50;;;8.10;;
19897;SDS011;10111;50.814;4.572;2022-10-20T05:03:26;11.73;;;7.87;;
19897;SDS011;10111;50.814;4.572;2022-10-20T05:05:52;16.03;;;7.87;;
19897;SDS011;10111;50.814;4.572;2022-10-20T05:08:17;15.97;;;8.20;;
19897;SDS011;10111;50.814;4.572;2022-10-20T05:10:43;12.63;;;7.50;;
19897;SDS011;10111;50.814;4.572;2022-10-20T05:13:09;14.23;;;7.90;;
19897;SDS011;10111;50.814;4.572;2022-10-20T05:15:34;13.60;;;8.37;;
19897;SDS011;10111;50.814;4.572;2022-10-20T05:18:00;12.13;;;7.67;;
19897;SDS011;10111;50.814;4.572;2022-10-20T05:20:26;11.60;;;7.50;;
19897;SDS011;10111;50.814;4.572;2022-10-20T05:22:51;9.57;;;6.97;;
19897;SDS011;10111;50.814;4.572;2022-10-20T05:25:17;11.93;;;7.13;;
19897;SDS011;10111;50.814;4.572;2022-10-20T05:27:43;11.07;;;6.47;;
19897;SDS011;10111;50.814;4.572;2022-10-20T05:30:08;13.63;;;7.27;;
19897;SDS011;10111;50.814;4.572;2022-10-20T05:32:34;10.47;;;7.33;;
19897;SDS011;10111;50.814;4.572;2022-10-20T05:35:00;14.07;;;8.30;;
19897;SDS011;10111;50.814;4.572;2022-10-20T05:37:26;11.07;;;6.50;;
19897;SDS011;10111;50.814;4.572;2022-10-20T05:39:51;11.10;;;7.23;;
19897;SDS011;10111;50.814;4.572;2022-10-20T05:42:17;13.47;;;7.30;;
19897;SDS011;10111;50.814;4.572;2022-10-20T05:44:42;10.50;;;7.97;;
19897;SDS011;10111;50.814;4.572;2022-10-20T05:47:08;10.70;;;7.67;;
19897;SDS011;10111;50.814;4.572;2022-10-20T05:49:33;10.83;;;7.03;;
19897;SDS011;10111;50.814;4.572;2022-10-20T05:51:59;9.37;;;7.10;;
19897;SDS011;10111;50.814;4.572;2022-10-20T05:54:25;11.53;;;7.37;;
19897;SDS011;10111;50.814;4.572;2022-10-20T05:56:50;11.13;;;7.30;;
19897;SDS011;10111;50.814;4.572;2022-10-20T05:59:16;8.53;;;6.40;;
19897;SDS011;10111;50.814;4.572;2022-10-20T06:01:42;10.93;;;7.33;;
19897;SDS011;10111;50.814;4.572;2022-10-20T06:04:14;9.37;;;6.77;;
19897;SDS011;10111;50.814;4.572;2022-10-20T06:06:41;12.77;;;7.10;;
19897;SDS011;10111;50.814;4.572;2022-10-20T06:09:08;11.93;;;7.50;;
19897;SDS011;10111;50.814;4.572;2022-10-20T06:11:35;13.13;;;7.83;;
19897;SDS011;10111;50.814;4.572;2022-10-20T06:14:01;10.63;;;7.60;;
19897;SDS011;10111;50.814;4.572;2022-10-20T06:16:27;9.83;;;7.67;;
19897;SDS011;10111;50.814;4.572;2022-10-20T06:18:54;10.23;;;7.60;;
19897;SDS011;10111;50.814;4.572;2022-10-20T06:21:22;12.57;;;7.27;;
19897;SDS011;10111;50.814;4.572;2022-10-20T06:23:50;9.67;;;7.07;;
19897;SDS011;10111;50.814;4.572;2022-10-20T06:26:17;9.70;;;7.13;;
19897;SDS011;10111;50.814;4.572;2022-10-20T06:28:44;11.13;;;6.20;;
19897;SDS011;10111;50.814;4.572;2022-10-20T06:31:15;9.97;;;6.53;;
19897;SDS011;10111;50.814;4.572;2022-10-20T06:33:43;9.40;;;6.43;;
19897;SDS011;10111;50.814;4.572;2022-10-20T06:36:09;13.43;;;8.47;;
19897;SDS011;10111;50.814;4.572;2022-10-20T06:38:36;9.17;;;6.60;;
19897;SDS011;10111;50.814;4.572;2022-10-20T06:41:03;9.50;;;6.27;;
19897;SDS011;10111;50.814;4.572;2022-10-20T06:43:29;10.73;;;6.37;;
19897;SDS011;10111;50.814;4.572;2022-10-20T06:45:56;8.83;;;6.10;;
19897;SDS011;10111;50.814;4.572;2022-10-20T06:48:23;10.97;;;7.13;;
19897;SDS011;10111;50.814;4.572;2022-10-20T06:50:50;8.00;;;6.10;;
19897;SDS011;10111;50.814;4.572;2022-10-20T06:53:21;8.50;;;5.53;;
19897;SDS011;10111;50.814;4.572;2022-10-20T06:55:54;10.03;;;6.60;;
19897;SDS011;10111;50.814;4.572;2022-10-20T06:58:21;9.33;;;6.40;;
19897;SDS011;10111;50.814;4.572;2022-10-20T07:00:47;7.50;;;6.07;;
19897;SDS011;10111;50.814;4.572;2022-10-20T07:03:21;9.97;;;6.13;;
19897;SDS011;10111;50.814;4.572;2022-10-20T07:05:46;7.57;;;5.53;;
19897;SDS011;10111;50.814;4.572;2022-10-20T07:08:12;9.07;;;6.00;;
19897;SDS011;10111;50.814;4.572;2022-10-20T07:10:38;10.43;;;6.13;;
19897;SDS011;10111;50.814;4.572;2022-10-20T07:13:03;8.27;;;5.63;;
19897;SDS011;10111;50.814;4.572;2022-10-20T07:15:29;9.73;;;6.47;;
19897;SDS011;10111;50.814;4.572;2022-10-20T07:17:54;8.67;;;6.23;;
19897;SDS011;10111;50.814;4.572;2022-10-20T07:20:20;8.27;;;6.37;;
19897;SDS011;10111;50.814;4.572;2022-10-20T07:22:46;8.30;;;5.90;;
19897;SDS011;10111;50.814;4.572;2022-10-20T07:25:11;8.27;;;6.37;;
19897;SDS011;10111;50.814;4.572;2022-10-20T07:27:37;7.47;;;5.83;;
19897;SDS011;10111;50.814;4.572;2022-10-20T07:30:03;9.87;;;6.07;;
19897;SDS011;10111;50.814;4.572;2022-10-20T07:32:29;9.83;;;6.53;;
19897;SDS011;10111;50.814;4.572;2022-10-20T07:34:55;8.73;;;5.40;;
19897;SDS011;10111;50.814;4.572;2022-10-20T07:37:21;9.90;;;6.30;;
19897;SDS011;10111;50.814;4.572;2022-10-20T07:39:46;9.17;;;6.67;;
19897;SDS011;10111;50.814;4.572;2022-10-20T07:42:12;9.20;;;6.77;;
19897;SDS011;10111;50.814;4.572;2022-10-20T07:44:37;8.23;;;6.67;;
19897;SDS011;10111;50.814;4.572;2022-10-20T07:47:03;13.13;;;6.77;;
19897;SDS011;10111;50.814;4.572;2022-10-20T07:49:29;12.83;;;6.23;;
19897;SDS011;10111;50.814;4.572;2022-10-20T07:51:54;12.40;;;7.20;;
19897;SDS011;10111;50.814;4.572;2022-10-20T07:54:20;11.13;;;7.67;;
19897;SDS011;10111;50.814;4.572;2022-10-20T07:56:46;8.53;;;6.50;;
19897;SDS011;10111;50.814;4.572;2022-10-20T07:59:12;11.27;;;6.87;;
19897;SDS011;10111;50.814;4.572;2022-10-20T08:01:38;9.93;;;5.97;;
19897;SDS011;10111;50.814;4.572;2022-10-20T08:04:04;13.40;;;7.07;;
19897;SDS011;10111;50.814;4.572;2022-10-20T08:06:29;9.43;;;6.10;;
19897;SDS011;10111;50.814;4.572;2022-10-20T08:08:55;8.67;;;6.40;;
19897;SDS011;10111;50.814;4.572;2022-10-20T08:11:21;9.57;;;6.37;;
19897;SDS011;10111;50.814;4.572;2022-10-20T08:13:47;11.17;;;6.27;;
19897;SDS011;10111;50.814;4.572;2022-10-20T08:16:13;11.27;;;6.93;;
19897;SDS011;10111;50.814;4.572;2022-10-20T08:18:40;10.53;;;6.70;;
19897;SDS011;10111;50.814;4.572;2022-10-20T08:21:11;8.37;;;5.90;;
19897;SDS011;10111;50.814;4.572;2022-10-20T08:23:42;7.97;;;6.20;;
19897;SDS011;10111;50.814;4.572;2022-10-20T08:26:09;10.03;;;7.30;;
19897;SDS011;10111;50.814;4.572;2022-10-20T08:28:36;8.37;;;6.60;;
19897;SDS011;10111;50.814;4.572;2022-10-20T08:31:02;7.47;;;5.70;;
19897;SDS011;10111;50.814;4.572;2022-10-20T08:33:29;9.37;;;6.43;;
19897;SDS011;10111;50.814;4.572;2022-10-20T08:35:55;6.70;;;5.77;;
19897;SDS011;10111;50.814;4.572;2022-10-20T08:38:25;11.93;;;5.93;;
19897;SDS011;10111;50.814;4.572;2022-10-20T08:40:51;9.70;;;6.47;;
19897;SDS011;10111;50.814;4.572;2022-10-20T08:43:17;10.00;;;7.30;;
19897;SDS011;10111;50.814;4.572;2022-10-20T08:45:44;9.87;;;6.43;;
19897;SDS011;10111;50.814;4.572;2022-10-20T08:48:13;10.17;;;6.40;;
19897;SDS011;10111;50.814;4.572;2022-10-20T08:50:43;11.80;;;7.73;;
19897;SDS011;10111;50.814;4.572;2022-10-20T08:53:10;10.83;;;6.63;;
19897;SDS011;10111;50.814;4.572;2022-10-20T08:55:36;10.50;;;6.47;;
19897;SDS011;10111;50.814;4.572;2022-10-20T08:58:03;8.70;;;5.77;;
19897;SDS011;10111;50.814;4.572;2022-10-20T09:00:31;11.57;;;6.00;;
19897;SDS011;10111;50.814;4.572;2022-10-20T09:05:56;12.97;;;6.80;;
19897;SDS011;10111;50.814;4.572;2022-10-20T09:08:40;10.53;;;6.17;;
19897;SDS011;10111;50.814;4.572;2022-10-20T09:11:07;12.27;;;7.33;;
19897;SDS011;10111;50.814;4.572;2022-10-20T09:13:37;12.73;;;7.30;;
19897;SDS011;10111;50.814;4.572;2022-10-20T09:16:04;13.03;;;7.03;;
19897;SDS011;10111;50.814;4.572;2022-10-20T09:18:31;9.67;;;6.57;;
19897;SDS011;10111;50.814;4.572;2022-10-20T09:20:59;12.03;;;8.23;;
19897;SDS011;10111;50.814;4.572;2022-10-20T09:23:50;13.70;;;7.90;;
19897;SDS011;10111;50.814;4.572;2022-10-20T09:26:20;10.73;;;7.20;;
19897;SDS011;10111;50.814;4.572;2022-10-20T09:28:51;9.90;;;7.47;;
19897;SDS011;10111;50.814;4.572;2022-10-20T09:31:37;9.23;;;7.13;;
19897;SDS011;10111;50.814;4.572;2022-10-20T09:39:41;10.73;;;7.80;;
19897;SDS011;10111;50.814;4.572;2022-10-20T09:42:14;12.50;;;7.17;;
19897;SDS011;10111;50.814;4.572;2022-10-20T09:44:51;12.67;;;7.60;;
19897;SDS011;10111;50.814;4.572;2022-10-20T09:47:20;13.70;;;8.30;;
19897;SDS011;10111;50.814;4.572;2022-10-20T09:49:50;12.53;;;8.53;;
19897;SDS011;10111;50.814;4.572;2022-10-20T09:52:21;13.17;;;7.50;;
19897;SDS011;10111;50.814;4.572;2022-10-20T09:54:56;11.17;;;8.40;;
19897;SDS011;10111;50.814;4.572;2022-10-20T09:57:27;12.73;;;8.60;;
19897;SDS011;10111;50.814;4.572;2022-10-20T09:59:55;14.03;;;8.60;;
19897;SDS011;10111;50.814;4.572;2022-10-20T10:04:48;11.97;;;8.03;;
19897;SDS011;10111;50.814;4.572;2022-10-20T10:09:56;13.50;;;7.33;;
19897;SDS011;10111;50.814;4.572;2022-10-20T10:12:29;12.70;;;7.83;;
19897;SDS011;10111;50.814;4.572;2022-10-20T10:14:57;15.13;;;8.13;;
19897;SDS011;10111;50.814;4.572;2022-10-20T10:17:29;10.77;;;6.90;;
19897;SDS011;10111;50.814;4.572;2022-10-20T10:20:03;13.00;;;7.00;;
19897;SDS011;10111;50.814;4.572;2022-10-20T10:22:31;11.17;;;7.57;;
19897;SDS011;10111;50.814;4.572;2022-10-20T10:24:57;10.77;;;7.97;;
19897;SDS011;10111;50.814;4.572;2022-10-20T10:27:28;12.77;;;7.10;;
19897;SDS011;10111;50.814;4.572;2022-10-20T10:30:42;10.87;;;7.33;;
19897;SDS011;10111;50.814;4.572;2022-10-20T10:32:48;14.10;;;8.70;;
19897;SDS011;10111;50.814;4.572;2022-10-20T10:37:48;10.10;;;7.20;;
19897;SDS011;10111;50.814;4.572;2022-10-20T10:40:16;8.63;;;5.93;;
19897;SDS011;10111;50.814;4.572;2022-10-20T10:43:01;14.47;;;7.73;;
19897;SDS011;10111;50.814;4.572;2022-10-20T10:51:14;9.97;;;6.67;;
19897;SDS011;10111;50.814;4.572;2022-10-20T11:19:20;11.30;;;5.30;;
19897;SDS011;10111;50.814;4.572;2022-10-20T11:26:41;10.13;;;5.27;;
19897;SDS011;10111;50.814;4.572;2022-10-20T11:29:14;12.07;;;6.33;;
19897;SDS011;10111;50.814;4.572;2022-10-20T11:34:24;11.87;;;6.00;;
19897;SDS011;10111;50.814;4.572;2022-10-20T11:37:11;14.17;;;5.43;;
19897;SDS011;10111;50.814;4.572;2022-10-20T11:45:51;9.53;;;5.33;;
19897;SDS011;10111;50.814;4.572;2022-10-20T11:48:50;9.50;;;6.77;;
19897;SDS011;10111;50.814;4.572;2022-10-20T11:51:24;13.10;;;5.83;;
19897;SDS011;10111;50.814;4.572;2022-10-20T12:02:17;7.93;;;5.03;;
19897;SDS011;10111;50.814;4.572;2022-10-20T12:10:42;5.87;;;3.43;;
19897;SDS011;10111;50.814;4.572;2022-10-20T12:19:22;5.40;;;4.17;;
19897;SDS011;10111;50.814;4.572;2022-10-20T12:21:53;4.27;;;3.00;;
19897;SDS011;10111;50.814;4.572;2022-10-20T12:34:46;4.73;;;3.37;;
19897;SDS011;10111;50.814;4.572;2022-10-20T12:37:16;7.30;;;4.73;;
19897;SDS011;10111;50.814;4.572;2022-10-20T12:39:54;6.17;;;3.47;;
19897;SDS011;10111;50.814;4.572;2022-10-20T12:42:22;6.57;;;4.60;;
19897;SDS011;10111;50.814;4.572;2022-10-20T12:45:01;4.37;;;3.27;;
19897;SDS011;10111;50.814;4.572;2022-10-20T12:47:33;11.03;;;4.63;;
19897;SDS011;10111;50.814;4.572;2022-10-20T12:50:07;5.17;;;4.03;;
19897;SDS011;10111;50.814;4.572;2022-10-20T12:53:08;3.63;;;3.33;;
19897;SDS011;10111;50.814;4.572;2022-10-20T12:55:44;5.60;;;3.07;;
19897;SDS011;10111;50.814;4.572;2022-10-20T13:05:55;7.87;;;3.33;;
19897;SDS011;10111;50.814;4.572;2022-10-20T13:08:26;4.83;;;3.37;;
19897;SDS011;10111;50.814;4.572;2022-10-20T13:11:43;5.20;;;2.83;;
19897;SDS011;10111;50.814;4.572;2022-10-20T13:13:57;6.63;;;2.73;;
19897;SDS011;10111;50.814;4.572;2022-10-20T13:16:31;6.60;;;2.63;;
19897;SDS011;10111;50.814;4.572;2022-10-20T13:18:59;3.63;;;2.60;;
19897;SDS011;10111;50.814;4.572;2022-10-20T13:21:27;8.83;;;3.63;;
19897;SDS011;10111;50.814;4.572;2022-10-20T13:26:47;4.33;;;2.67;;
19897;SDS011;10111;50.814;4.572;2022-10-20T13:29:23;3.37;;;2.00;;
19897;SDS011;10111;50.814;4.572;2022-10-20T13:31:58;4.27;;;2.13;;
19897;SDS011;10111;50.814;4.572;2022-10-20T13:34:38;3.30;;;2.23;;
19897;SDS011;10111;50.814;4.572;2022-10-20T13:51:26;6.07;;;2.53;;
19897;SDS011;10111;50.814;4.572;2022-10-20T13:53:56;4.17;;;2.50;;
19897;SDS011;10111;50.814;4.572;2022-10-20T13:59:28;3.60;;;2.40;;
19897;SDS011;10111;50.814;4.572;2022-10-20T14:02:23;4.87;;;2.50;;
19897;SDS011;10111;50.814;4.572;2022-10-20T14:05:28;7.83;;;2.40;;
19897;SDS011;10111;50.814;4.572;2022-10-20T14:07:47;4.10;;;2.80;;
19897;SDS011;10111;50.814;4.572;2022-10-20T14:13:08;5.57;;;2.40;;
19897;SDS011;10111;50.814;4.572;2022-10-20T14:15:38;4.97;;;2.00;;
19897;SDS011;10111;50.814;4.572;2022-10-20T14:18:05;6.87;;;3.07;;
19897;SDS011;10111;50.814;4.572;2022-10-20T14:20:42;3.57;;;1.90;;
19897;SDS011;10111;50.814;4.572;2022-10-20T14:23:24;4.13;;;2.20;;
19897;SDS011;10111;50.814;4.572;2022-10-20T14:25:50;2.57;;;1.83;;
19897;SDS011;10111;50.814;4.572;2022-10-20T14:28:17;2.97;;;2.50;;
19897;SDS011;10111;50.814;4.572;2022-10-20T14:30:48;6.53;;;4.27;;
19897;SDS011;10111;50.814;4.572;2022-10-20T14:33:14;4.60;;;2.60;;
19897;SDS011;10111;50.814;4.572;2022-10-20T14:35:42;4.70;;;2.43;;
19897;SDS011;10111;50.814;4.572;2022-10-20T14:38:17;3.33;;;2.03;;
19897;SDS011;10111;50.814;4.572;2022-10-20T14:40:50;4.20;;;2.37;;
19897;SDS011;10111;50.814;4.572;2022-10-20T14:43:18;4.00;;;2.47;;
19897;SDS011;10111;50.814;4.572;2022-10-20T14:45:52;3.80;;;2.40;;
19897;SDS011;10111;50.814;4.572;2022-10-20T14:48:21;3.43;;;2.67;;
19897;SDS011;10111;50.814;4.572;2022-10-20T14:50:57;4.17;;;2.00;;
19897;SDS011;10111;50.814;4.572;2022-10-20T14:53:30;2.90;;;2.40;;
19897;SDS011;10111;50.814;4.572;2022-10-20T14:55:58;3.50;;;2.17;;
19897;SDS011;10111;50.814;4.572;2022-10-20T14:58:33;3.60;;;3.17;;
19897;SDS011;10111;50.814;4.572;2022-10-20T15:03:45;4.97;;;2.57;;
19897;SDS011;10111;50.814;4.572;2022-10-20T15:06:12;5.17;;;2.57;;
19897;SDS011;10111;50.814;4.572;2022-10-20T15:08:40;3.30;;;2.30;;
19897;SDS011;10111;50.814;4.572;2022-10-20T15:11:22;5.77;;;1.80;;
19897;SDS011;10111;50.814;4.572;2022-10-20T15:13:52;4.13;;;2.50;;
19897;SDS011;10111;50.814;4.572;2022-10-20T15:21:47;4.90;;;2.53;;
19897;SDS011;10111;50.814;4.572;2022-10-20T15:24:31;5.20;;;2.57;;
19897;SDS011;10111;50.814;4.572;2022-10-20T15:26:57;5.20;;;2.43;;
19897;SDS011;10111;50.814;4.572;2022-10-20T15:29:25;3.63;;;2.80;;
19897;SDS011;10111;50.814;4.572;2022-10-20T15:31:51;3.87;;;2.60;;
19897;SDS011;10111;50.814;4.572;2022-10-20T15:34:18;4.40;;;2.57;;
19897;SDS011;10111;50.814;4.572;2022-10-20T15:36:43;2.83;;;2.23;;
19897;SDS011;10111;50.814;4.572;2022-10-20T15:39:10;6.20;;;2.77;;
19897;SDS011;10111;50.814;4.572;2022-10-20T15:41:36;3.30;;;2.30;;
19897;SDS011;10111;50.814;4.572;2022-10-20T15:46:39;5.37;;;2.63;;
19897;SDS011;10111;50.814;4.572;2022-10-20T15:49:06;3.77;;;2.23;;
19897;SDS011;10111;50.814;4.572;2022-10-20T15:51:33;2.97;;;2.30;;
19897;SDS011;10111;50.814;4.572;2022-10-20T15:54:00;2.90;;;2.20;;
19897;SDS011;10111;50.814;4.572;2022-10-20T15:56:26;3.53;;;2.20;;
19897;SDS011;10111;50.814;4.572;2022-10-20T15:58:54;4.03;;;2.60;;
19897;SDS011;10111;50.814;4.572;2022-10-20T16:01:20;4.20;;;2.50;;
19897;SDS011;10111;50.814;4.572;2022-10-20T16:03:46;5.90;;;2.40;;
19897;SDS011;10111;50.814;4.572;2022-10-20T16:06:13;7.30;;;2.53;;
19897;SDS011;10111;50.814;4.572;2022-10-20T16:08:40;4.60;;;2.20;;
19897;SDS011;10111;50.814;4.572;2022-10-20T16:11:07;4.20;;;2.83;;
19897;SDS011;10111;50.814;4.572;2022-10-20T16:13:33;2.77;;;2.27;;
19897;SDS011;10111;50.814;4.572;2022-10-20T16:16:00;7.47;;;4.67;;
19897;SDS011;10111;50.814;4.572;2022-10-20T16:18:26;5.93;;;3.20;;
19897;SDS011;10111;50.814;4.572;2022-10-20T16:20:52;5.10;;;2.60;;
19897;SDS011;10111;50.814;4.572;2022-10-20T16:23:17;4.00;;;2.53;;
19897;SDS011;10111;50.814;4.572;2022-10-20T16:25:43;4.97;;;2.40;;
19897;SDS011;10111;50.814;4.572;2022-10-20T16:28:09;4.03;;;2.87;;
19897;SDS011;10111;50.814;4.572;2022-10-20T16:30:35;3.80;;;2.50;;
19897;SDS011;10111;50.814;4.572;2022-10-20T16:33:00;4.53;;;3.17;;
19897;SDS011;10111;50.814;4.572;2022-10-20T16:35:26;6.20;;;3.77;;
19897;SDS011;10111;50.814;4.572;2022-10-20T16:37:52;5.20;;;3.00;;
19897;SDS011;10111;50.814;4.572;2022-10-20T16:40:17;4.47;;;3.03;;
19897;SDS011;10111;50.814;4.572;2022-10-20T16:42:43;8.50;;;4.50;;
19897;SDS011;10111;50.814;4.572;2022-10-20T16:45:09;3.57;;;2.87;;
19897;SDS011;10111;50.814;4.572;2022-10-20T16:47:35;3.47;;;3.10;;
19897;SDS011;10111;50.814;4.572;2022-10-20T16:50:02;3.70;;;2.60;;
19897;SDS011;10111;50.814;4.572;2022-10-20T16:52:28;5.40;;;2.70;;
19897;SDS011;10111;50.814;4.572;2022-10-20T16:54:54;4.43;;;2.63;;
19897;SDS011;10111;50.814;4.572;2022-10-20T16:57:19;4.00;;;2.60;;
19897;SDS011;10111;50.814;4.572;2022-10-20T16:59:45;3.57;;;2.57;;
19897;SDS011;10111;50.814;4.572;2022-10-20T17:02:14;4.13;;;2.17;;
19897;SDS011;10111;50.814;4.572;2022-10-20T17:04:42;5.23;;;2.40;;
19897;SDS011;10111;50.814;4.572;2022-10-20T17:07:14;3.90;;;2.67;;
19897;SDS011;10111;50.814;4.572;2022-10-20T17:09:40;3.47;;;2.50;;
19897;SDS011;10111;50.814;4.572;2022-10-20T17:12:06;7.90;;;3.53;;
19897;SDS011;10111;50.814;4.572;2022-10-20T17:14:32;6.33;;;2.53;;
19897;SDS011;10111;50.814;4.572;2022-10-20T17:16:57;4.17;;;2.57;;
19897;SDS011;10111;50.814;4.572;2022-10-20T17:19:24;4.83;;;2.63;;
19897;SDS011;10111;50.814;4.572;2022-10-20T17:21:50;5.27;;;2.50;;
19897;SDS011;10111;50.814;4.572;2022-10-20T17:24:15;5.93;;;2.93;;
19897;SDS011;10111;50.814;4.572;2022-10-20T17:26:41;2.87;;;2.37;;
19897;SDS011;10111;50.814;4.572;2022-10-20T17:29:07;5.87;;;2.67;;